BCS4127 LOWL-EDDP
Flight info
| Callsign | BCS4127 |
|---|---|
| Flight time | 0h 49m |
| Altitude | 30000 |
| Route | LIDSI DCT LAMSI L604 MOOCE/N0425F240 L604 ANELA M726 LASGA T953 VOCIM/N0461F290 T954 GOXLI GOXLI1V |
| Aircraft | B738/M-SDE2E3FGHIRWXY/LB1 |
Departure
| Time | 2026-05-04 14:23 |
|---|---|
| Airport | Linz-Hörsching Airport (LOWL) |
Arrival
| Time | 2026-05-04 15:13 |
|---|---|
| Airport | Leipzig/Halle Airport (EDDP) |
| Time | Latitude | Longitude | Altitude | Speed | Heading |
|---|---|---|---|---|---|
| 2026-05-04 14:04 | 48.23866 | 14.19014 | 974 ft | 0 kts | 268° |
| 2026-05-04 14:17 | 48.23865 | 14.18986 | 983 ft | 7 kts | 266° |
| 2026-05-04 14:18 | 48.23827 | 14.18930 | 982 ft | 9 kts | 174° |
| 2026-05-04 14:18 | 48.23745 | 14.18871 | 978 ft | 8 kts | 265° |
| 2026-05-04 14:19 | 48.23737 | 14.18661 | 980 ft | 13 kts | 266° |
| 2026-05-04 14:19 | 48.23730 | 14.18497 | 980 ft | 19 kts | 266° |
| 2026-05-04 14:19 | 48.23725 | 14.18281 | 979 ft | 22 kts | 269° |
| 2026-05-04 14:19 | 48.23717 | 14.18088 | 979 ft | 15 kts | 259° |
| 2026-05-04 14:20 | 48.23642 | 14.18003 | 982 ft | 14 kts | 196° |
| 2026-05-04 14:20 | 48.23539 | 14.17962 | 984 ft | 16 kts | 195° |
| 2026-05-04 14:20 | 48.23431 | 14.17916 | 980 ft | 17 kts | 195° |
| 2026-05-04 14:21 | 48.23286 | 14.17716 | 985 ft | 18 kts | 267° |
| 2026-05-04 14:21 | 48.23279 | 14.17496 | 985 ft | 24 kts | 267° |
| 2026-05-04 14:21 | 48.23268 | 14.17211 | 983 ft | 31 kts | 267° |
| 2026-05-04 14:21 | 48.23257 | 14.16900 | 986 ft | 23 kts | 267° |
| 2026-05-04 14:22 | 48.23294 | 14.16765 | 990 ft | 11 kts | 275° |
| 2026-05-04 14:22 | 48.23264 | 14.16734 | 987 ft | 6 kts | 169° |
| 2026-05-04 14:22 | 48.23253 | 14.16776 | 985 ft | 0 kts | 86° |
| 2026-05-04 14:22 | 48.23253 | 14.16787 | 985 ft | 8 kts | 86° |
| 2026-05-04 14:23 | 48.23319 | 14.18695 | 996 ft | 158 kts | 87° |
| 2026-05-04 14:23 | 48.23370 | 14.20393 | 1726 ft | 162 kts | 87° |
| 2026-05-04 14:23 | 48.23418 | 14.22091 | 2617 ft | 165 kts | 88° |
| 2026-05-04 14:24 | 48.23466 | 14.23879 | 3209 ft | 186 kts | 88° |
| 2026-05-04 14:24 | 48.23520 | 14.25967 | 3566 ft | 210 kts | 88° |
| 2026-05-04 14:24 | 48.23868 | 14.28119 | 4128 ft | 222 kts | 58° |
| 2026-05-04 14:24 | 48.25093 | 14.29722 | 4338 ft | 255 kts | 22° |
| 2026-05-04 14:25 | 48.26886 | 14.29929 | 4864 ft | 272 kts | 347° |
| 2026-05-04 14:25 | 48.29843 | 14.26512 | 6467 ft | 278 kts | 291° |
| 2026-05-04 14:25 | 48.30148 | 14.23678 | 7243 ft | 278 kts | 263° |
| 2026-05-04 14:26 | 48.29908 | 14.20840 | 8288 ft | 271 kts | 262° |
| 2026-05-04 14:26 | 48.29769 | 14.17970 | 9027 ft | 279 kts | 266° |
| 2026-05-04 14:26 | 48.29700 | 14.15041 | 9834 ft | 282 kts | 266° |
| 2026-05-04 14:26 | 48.29610 | 14.12111 | 10494 ft | 291 kts | 265° |
| 2026-05-04 14:27 | 48.29494 | 14.08940 | 10687 ft | 316 kts | 265° |
| 2026-05-04 14:27 | 48.29321 | 14.05527 | 10868 ft | 339 kts | 259° |
| 2026-05-04 14:27 | 48.29131 | 14.01886 | 11076 ft | 361 kts | 276° |
| 2026-05-04 14:27 | 48.29998 | 13.98360 | 11635 ft | 373 kts | 302° |
| 2026-05-04 14:28 | 48.31894 | 13.95615 | 12463 ft | 379 kts | 325° |
| 2026-05-04 14:28 | 48.34158 | 13.93550 | 13196 ft | 383 kts | 326° |
| 2026-05-04 14:28 | 48.36409 | 13.91447 | 13880 ft | 388 kts | 324° |
| 2026-05-04 14:28 | 48.38665 | 13.89184 | 14594 ft | 390 kts | 323° |
| 2026-05-04 14:29 | 48.43090 | 13.84333 | 15990 ft | 397 kts | 320° |
| 2026-05-04 14:29 | 48.47525 | 13.79193 | 17339 ft | 406 kts | 320° |
| 2026-05-04 14:30 | 48.49743 | 13.76592 | 17982 ft | 410 kts | 320° |
| 2026-05-04 14:30 | 48.52005 | 13.73936 | 18576 ft | 413 kts | 320° |
| 2026-05-04 14:30 | 48.56582 | 13.68561 | 19726 ft | 420 kts | 320° |
| 2026-05-04 14:31 | 48.58903 | 13.65836 | 20284 ft | 424 kts | 320° |
| 2026-05-04 14:31 | 48.63601 | 13.60305 | 21343 ft | 431 kts | 320° |
| 2026-05-04 14:32 | 48.68108 | 13.54320 | 22370 ft | 436 kts | 313° |
| 2026-05-04 14:32 | 48.70261 | 13.51062 | 22855 ft | 440 kts | 313° |
| 2026-05-04 14:32 | 48.72422 | 13.47754 | 23327 ft | 443 kts | 313° |
| 2026-05-04 14:32 | 48.74599 | 13.44430 | 23746 ft | 446 kts | 313° |
| 2026-05-04 14:33 | 48.76805 | 13.41084 | 24181 ft | 448 kts | 313° |
| 2026-05-04 14:33 | 48.78995 | 13.37781 | 24626 ft | 449 kts | 313° |
| 2026-05-04 14:33 | 48.81221 | 13.34429 | 25059 ft | 451 kts | 313° |
| 2026-05-04 14:33 | 48.83454 | 13.31067 | 25468 ft | 453 kts | 313° |
| 2026-05-04 14:34 | 48.85695 | 13.27687 | 25859 ft | 455 kts | 313° |
| 2026-05-04 14:34 | 48.87942 | 13.24293 | 26238 ft | 456 kts | 313° |
| 2026-05-04 14:34 | 48.90197 | 13.20877 | 26591 ft | 458 kts | 313° |
| 2026-05-04 14:34 | 48.92457 | 13.17444 | 26964 ft | 460 kts | 312° |
| 2026-05-04 14:35 | 48.94689 | 13.14046 | 27328 ft | 461 kts | 312° |
| 2026-05-04 14:35 | 48.96955 | 13.10594 | 27738 ft | 461 kts | 312° |
| 2026-05-04 14:35 | 48.99214 | 13.07148 | 28276 ft | 458 kts | 312° |
| 2026-05-04 14:35 | 49.01456 | 13.03724 | 28848 ft | 455 kts | 312° |
| 2026-05-04 14:36 | 49.03685 | 13.00317 | 29388 ft | 452 kts | 312° |
| 2026-05-04 14:36 | 49.05904 | 12.96918 | 29878 ft | 451 kts | 312° |
| 2026-05-04 14:36 | 49.08125 | 12.93510 | 29928 ft | 453 kts | 311° |
| 2026-05-04 14:37 | 49.12563 | 12.86687 | 29953 ft | 451 kts | 311° |
| 2026-05-04 14:37 | 49.16947 | 12.79932 | 29958 ft | 450 kts | 311° |
| 2026-05-04 14:38 | 49.21356 | 12.73119 | 29962 ft | 450 kts | 311° |
| 2026-05-04 14:38 | 49.25741 | 12.66324 | 29953 ft | 450 kts | 311° |
| 2026-05-04 14:39 | 49.30139 | 12.59494 | 29953 ft | 451 kts | 311° |
| 2026-05-04 14:39 | 49.33938 | 12.51934 | 29964 ft | 445 kts | 296° |
| 2026-05-04 14:40 | 49.37279 | 12.38814 | 29968 ft | 442 kts | 287° |
| 2026-05-04 14:40 | 49.39311 | 12.29882 | 29955 ft | 443 kts | 287° |
| 2026-05-04 14:41 | 49.41368 | 12.21009 | 29961 ft | 444 kts | 287° |
| 2026-05-04 14:42 | 49.45534 | 12.03089 | 29983 ft | 445 kts | 287° |
| 2026-05-04 14:42 | 49.47597 | 11.94156 | 29986 ft | 446 kts | 287° |
| 2026-05-04 14:43 | 49.49683 | 11.85162 | 29992 ft | 446 kts | 287° |
| 2026-05-04 14:43 | 49.51754 | 11.76226 | 29992 ft | 446 kts | 287° |
| 2026-05-04 14:44 | 49.53832 | 11.67216 | 29988 ft | 446 kts | 287° |
| 2026-05-04 14:44 | 49.55982 | 11.58262 | 29991 ft | 447 kts | 292° |
| 2026-05-04 14:45 | 49.59358 | 11.50229 | 29957 ft | 454 kts | 309° |
| 2026-05-04 14:45 | 49.63823 | 11.43268 | 29963 ft | 456 kts | 311° |
| 2026-05-04 14:46 | 49.68267 | 11.36264 | 29984 ft | 456 kts | 310° |
| 2026-05-04 14:46 | 49.72669 | 11.29253 | 29969 ft | 458 kts | 310° |
| 2026-05-04 14:47 | 49.75028 | 11.25908 | 29953 ft | 464 kts | 321° |
| 2026-05-04 14:47 | 49.77894 | 11.23543 | 29998 ft | 470 kts | 336° |
| 2026-05-04 14:47 | 49.81084 | 11.22330 | 29971 ft | 477 kts | 351° |
| 2026-05-04 14:47 | 49.84421 | 11.22258 | 29994 ft | 479 kts | 358° |
| 2026-05-04 14:48 | 49.91051 | 11.22486 | 29976 ft | 479 kts | 358° |
| 2026-05-04 14:48 | 49.97739 | 11.22576 | 29969 ft | 479 kts | 357° |
| 2026-05-04 14:49 | 50.04434 | 11.22589 | 29985 ft | 482 kts | 357° |
| 2026-05-04 14:49 | 50.11114 | 11.22618 | 29978 ft | 484 kts | 357° |
| 2026-05-04 14:50 | 50.17858 | 11.22668 | 29986 ft | 485 kts | 357° |
| 2026-05-04 14:50 | 50.24623 | 11.22719 | 29983 ft | 485 kts | 357° |
| 2026-05-04 14:51 | 50.31339 | 11.22767 | 29983 ft | 485 kts | 356° |
| 2026-05-04 14:51 | 50.38078 | 11.22777 | 29983 ft | 483 kts | 355° |
| 2026-05-04 14:52 | 50.44779 | 11.22271 | 29979 ft | 480 kts | 353° |
| 2026-05-04 14:52 | 50.51431 | 11.21680 | 29983 ft | 477 kts | 353° |
| 2026-05-04 14:53 | 50.58031 | 11.21189 | 29989 ft | 477 kts | 353° |
| 2026-05-04 14:53 | 50.64692 | 11.22162 | 29993 ft | 487 kts | 11° |
| 2026-05-04 14:54 | 50.71010 | 11.26010 | 29987 ft | 492 kts | 22° |
| 2026-05-04 14:54 | 50.77183 | 11.30689 | 29977 ft | 491 kts | 23° |
| 2026-05-04 14:55 | 50.83364 | 11.35319 | 29897 ft | 492 kts | 22° |
| 2026-05-04 14:55 | 50.86487 | 11.37616 | 29026 ft | 496 kts | 22° |
| 2026-05-04 14:55 | 50.89613 | 11.39906 | 28194 ft | 492 kts | 22° |
| 2026-05-04 14:56 | 50.92694 | 11.42159 | 27115 ft | 495 kts | 22° |
| 2026-05-04 14:56 | 50.95824 | 11.44453 | 26137 ft | 495 kts | 22° |
| 2026-05-04 14:56 | 50.98947 | 11.46748 | 25265 ft | 492 kts | 23° |
| 2026-05-04 14:56 | 51.02038 | 11.49027 | 24595 ft | 485 kts | 23° |
| 2026-05-04 14:57 | 51.05063 | 11.51261 | 23897 ft | 471 kts | 23° |
| 2026-05-04 14:57 | 51.07973 | 11.53565 | 22721 ft | 464 kts | 30° |
| 2026-05-04 14:57 | 51.10511 | 11.56612 | 21448 ft | 462 kts | 42° |
| 2026-05-04 14:57 | 51.12647 | 11.60388 | 20308 ft | 456 kts | 53° |
| 2026-05-04 14:58 | 51.14272 | 11.64678 | 19235 ft | 449 kts | 63° |
| 2026-05-04 14:58 | 51.15659 | 11.69087 | 18193 ft | 442 kts | 63° |
| 2026-05-04 14:58 | 51.17020 | 11.73443 | 17029 ft | 435 kts | 63° |
| 2026-05-04 14:58 | 51.18375 | 11.77708 | 15989 ft | 427 kts | 63° |
| 2026-05-04 14:59 | 51.19726 | 11.81886 | 14983 ft | 419 kts | 63° |
| 2026-05-04 14:59 | 51.21058 | 11.85978 | 14104 ft | 411 kts | 63° |
| 2026-05-04 14:59 | 51.23131 | 11.93910 | 13408 ft | 368 kts | 78° |
| 2026-05-04 15:00 | 51.23442 | 11.97865 | 13016 ft | 351 kts | 88° |
| 2026-05-04 15:00 | 51.23595 | 12.01672 | 12731 ft | 335 kts | 88° |
| 2026-05-04 15:00 | 51.23747 | 12.05332 | 12328 ft | 325 kts | 87° |
| 2026-05-04 15:01 | 51.24068 | 12.12278 | 11575 ft | 309 kts | 87° |
| 2026-05-04 15:01 | 51.24231 | 12.15692 | 11027 ft | 308 kts | 87° |
| 2026-05-04 15:01 | 51.24393 | 12.19110 | 10501 ft | 307 kts | 87° |
| 2026-05-04 15:01 | 51.24551 | 12.22458 | 10208 ft | 298 kts | 87° |
| 2026-05-04 15:02 | 51.24701 | 12.25661 | 10016 ft | 287 kts | 87° |
| 2026-05-04 15:02 | 51.24848 | 12.28814 | 9761 ft | 285 kts | 87° |
| 2026-05-04 15:02 | 51.24995 | 12.31993 | 9435 ft | 290 kts | 86° |
| 2026-05-04 15:02 | 51.25145 | 12.35294 | 9116 ft | 296 kts | 87° |
| 2026-05-04 15:03 | 51.25455 | 12.38477 | 8745 ft | 291 kts | 70° |
| 2026-05-04 15:03 | 51.26234 | 12.41404 | 8455 ft | 282 kts | 65° |
| 2026-05-04 15:03 | 51.27030 | 12.44226 | 8163 ft | 276 kts | 65° |
| 2026-05-04 15:03 | 51.27818 | 12.47032 | 7902 ft | 277 kts | 65° |
| 2026-05-04 15:04 | 51.28594 | 12.49860 | 7582 ft | 276 kts | 66° |
| 2026-05-04 15:04 | 51.29341 | 12.52622 | 7290 ft | 272 kts | 66° |
| 2026-05-04 15:04 | 51.30091 | 12.55403 | 6989 ft | 275 kts | 66° |
| 2026-05-04 15:04 | 51.30850 | 12.58204 | 6693 ft | 274 kts | 66° |
| 2026-05-04 15:05 | 51.31379 | 12.61078 | 6393 ft | 267 kts | 85° |
| 2026-05-04 15:05 | 51.31487 | 12.64034 | 5864 ft | 271 kts | 88° |
| 2026-05-04 15:05 | 51.31921 | 12.66918 | 5487 ft | 271 kts | 59° |
| 2026-05-04 15:05 | 51.33186 | 12.69053 | 5091 ft | 265 kts | 28° |
| 2026-05-04 15:06 | 51.34891 | 12.69936 | 4853 ft | 251 kts | 4° |
| 2026-05-04 15:06 | 51.36637 | 12.69898 | 4386 ft | 254 kts | 354° |
| 2026-05-04 15:06 | 51.38412 | 12.69673 | 4054 ft | 256 kts | 354° |
| 2026-05-04 15:07 | 51.41773 | 12.68312 | 3488 ft | 251 kts | 319° |
| 2026-05-04 15:07 | 51.42798 | 12.66151 | 3389 ft | 240 kts | 291° |
| 2026-05-04 15:07 | 51.43130 | 12.63590 | 3168 ft | 235 kts | 270° |
| 2026-05-04 15:07 | 51.43073 | 12.60999 | 3044 ft | 235 kts | 266° |
| 2026-05-04 15:08 | 51.42950 | 12.58388 | 2998 ft | 235 kts | 265° |
| 2026-05-04 15:08 | 51.42819 | 12.55798 | 3009 ft | 232 kts | 265° |
| 2026-05-04 15:08 | 51.42699 | 12.53244 | 2964 ft | 226 kts | 265° |
| 2026-05-04 15:08 | 51.42593 | 12.50804 | 2977 ft | 214 kts | 266° |
| 2026-05-04 15:09 | 51.42499 | 12.48478 | 2999 ft | 207 kts | 265° |
| 2026-05-04 15:09 | 51.42373 | 12.46168 | 2978 ft | 209 kts | 264° |
| 2026-05-04 15:09 | 51.42271 | 12.43796 | 2738 ft | 215 kts | 268° |
| 2026-05-04 15:10 | 51.42044 | 12.39134 | 2129 ft | 204 kts | 265° |
| 2026-05-04 15:10 | 51.41948 | 12.36998 | 1889 ft | 183 kts | 265° |
| 2026-05-04 15:10 | 51.41770 | 12.33382 | 1490 ft | 143 kts | 265° |
| 2026-05-04 15:11 | 51.41694 | 12.31766 | 1288 ft | 146 kts | 265° |
| 2026-05-04 15:11 | 51.41617 | 12.30197 | 1093 ft | 139 kts | 265° |
| 2026-05-04 15:11 | 51.41538 | 12.28642 | 893 ft | 140 kts | 265° |
| 2026-05-04 15:11 | 51.41470 | 12.27094 | 744 ft | 142 kts | 267° |
| 2026-05-04 15:12 | 51.41424 | 12.26054 | 594 ft | 142 kts | 268° |
| 2026-05-04 15:12 | 51.41330 | 12.24066 | 474 ft | 115 kts | 266° |
| 2026-05-04 15:12 | 51.41294 | 12.23311 | 469 ft | 89 kts | 265° |
| 2026-05-04 15:12 | 51.41258 | 12.22537 | 461 ft | 55 kts | 265° |
| 2026-05-04 15:13 | 51.41227 | 12.21983 | 456 ft | 38 kts | 257° |
| 2026-05-04 15:13 | 51.41118 | 12.21655 | 456 ft | 12 kts | 223° |
| 2026-05-04 15:13 | 51.41090 | 12.21643 | 457 ft | 5 kts | 170° |
| 2026-05-04 15:13 | 51.41061 | 12.21682 | 458 ft | 6 kts | 126° |
| 2026-05-04 15:14 | 51.41050 | 12.21761 | 459 ft | 8 kts | 91° |
| 2026-05-04 15:14 | 51.41056 | 12.21879 | 458 ft | 13 kts | 84° |
| 2026-05-04 15:14 | 51.41066 | 12.22045 | 458 ft | 16 kts | 87° |
| 2026-05-04 15:14 | 51.41071 | 12.22219 | 459 ft | 15 kts | 85° |
| 2026-05-04 15:15 | 51.41014 | 12.22324 | 457 ft | 14 kts | 152° |
| 2026-05-04 15:15 | 51.40996 | 12.22462 | 461 ft | 13 kts | 85° |
| 2026-05-04 15:15 | 51.41003 | 12.22605 | 462 ft | 13 kts | 85° |
| 2026-05-04 15:16 | 51.41016 | 12.22897 | 466 ft | 13 kts | 87° |
| 2026-05-04 15:16 | 51.41023 | 12.23046 | 469 ft | 15 kts | 86° |
| 2026-05-04 15:16 | 51.41043 | 12.23476 | 470 ft | 24 kts | 85° |
| 2026-05-04 15:17 | 51.41033 | 12.23636 | 469 ft | 14 kts | 140° |
| 2026-05-04 15:17 | 51.40829 | 12.23673 | 464 ft | 16 kts | 175° |
| 2026-05-04 15:17 | 51.40746 | 12.23683 | 461 ft | 8 kts | 176° |
| 2026-05-04 15:18 | 51.40730 | 12.23662 | 462 ft | 3 kts | 266° |
| 2026-05-04 15:18 | 51.40728 | 12.23628 | 462 ft | 3 kts | 265° |
| 2026-05-04 15:18 | 51.40727 | 12.23582 | 462 ft | 6 kts | 266° |
| 2026-05-04 15:19 | 51.40726 | 12.23570 | 462 ft | 0 kts | 265° |